Details From MMMX - Licenciado Benito Juarez Intl
To MMQT - QUERETARO INTERCONTINENTAL
Flight Number -
Tags decoded
Created
Modified
Stats Distance 106 nm / 196 km
Max Altitude 0 ft / 0 m
Waypoints 4
Social Downloads 1
Likes 0
Share VATSIM

Download

Looking for another format? Having issues loading an existing format? Contact us
Advertisement - Login to hide

Notes

Requested: MMMX PTJ UJ45 QET MMQT

Route

MMMX PTJ UJ45 QET MMQT

ID Type Via Altitude Latitude Longitude Leg Dist Tot Dist Heading (true) Name
O MMMX APT - 0 ft / 0 m 19.43631˚ -99.07210˚ - 0 nm - Licenciado Benito Juarez Intl
PTJ VOR - 0 ft / 0 m 19.64569˚ -99.79803˚ 42 nm 42 nm 287° / 287° PASTEJE VOR-DME
QET VOR UJ45 (AWY-HI) 0 ft / 0 m 20.61747˚ -100.19364˚ 62 nm 105 nm 339° / 339° QUERETARO VOR-DME
O MMQT APT - 0 ft / 0 m 20.61729˚ -100.18566˚ 0 nm 105 nm 91° / 91° QUERETARO INTERCONTINENTAL

Altitude Profile

Advertisement - Login to hide

MMMX

Details ICAO MMMX (MEX)
Name Licenciado Benito Juarez Intl
Region Mexico
Timezone America/Mexico_City (UTC-5.0)
Stats Elevation 7,316 ft / 2,230 m (AMSL)
Location 19.436308° -99.072104°
Runways 2
Magnetic Variation 4.598° E

METAR

MMMX 232048Z 16003KT 7SM SCT020TCU 27/04 A3024 NOSIG RMK SLP043 57020 906 8/200 HZY AC

Decode

TAF

Not found

Departure Runways

ID Width Length Bearing (true) Bearing (mag) Surface Threshold Offset Overrun Length
05L 148 ft / 45 m 12,951 ft / 3,948 m 59.25° 54.65° Asphalt 1,033 ft / 315 m 0 ft / 0 m
05R 148 ft / 45 m 12,800 ft / 3,902 m 59.26° 54.66° Asphalt 1,493 ft / 455 m 0 ft / 0 m
23L 148 ft / 45 m 12,800 ft / 3,902 m 239.28° 234.68° Asphalt 0 ft / 0 m 200 ft / 61 m
23R 148 ft / 45 m 12,951 ft / 3,948 m 239.27° 234.67° Asphalt 1,640 ft / 500 m 0 ft / 0 m

MMQT

Details ICAO MMQT (QRO)
Name QUERETARO INTERCONTINENTAL
Region Mexico
Timezone America/Mexico_City (UTC-5.0)
Stats Elevation 6,296 ft / 1,919 m (AMSL)
Location 20.617289° -100.185657°
Runways 1
Magnetic Variation 5.027° E

METAR

MMQT 232053Z 06011KT 6SM BKN025CB 29/07 A3021 RMK 8/300 HZY AC TS N

Decode

TAF

Not found

Destination Runways

ID Width Length Bearing (true) Bearing (mag) Surface Threshold Offset Overrun Length
09 148 ft / 45 m 11,442 ft / 3,488 m 100.86° 95.83° Concrete 0 ft / 0 m 1,135 ft / 346 m
27 148 ft / 45 m 11,442 ft / 3,488 m 280.87° 275.84° Concrete 0 ft / 0 m 1,135 ft / 346 m

Popular Alternatives